createdAt,value
2017-06-27T18:57:48.193Z,83.3
2017-06-27T18:58:10.175Z,83.5
2017-06-27T18:58:31.983Z,82.9
2017-06-27T18:58:53.295Z,83.3
2017-06-27T18:59:14.981Z,83.1
2017-06-27T18:59:36.422Z,83.2
2017-06-27T18:59:58.437Z,83
2017-06-27T19:00:19.102Z,83.7
2017-06-27T19:00:40.550Z,83.2
2017-06-27T19:01:02.839Z,83.3
2017-06-27T19:01:24.423Z,83.4
2017-06-27T19:01:46.701Z,83.4
2017-06-27T19:02:12.377Z,83.6
2017-06-27T19:02:33.967Z,84.1
2017-06-27T19:02:54.666Z,84
2017-06-27T19:03:16.959Z,84.1
2017-06-27T19:03:38.591Z,83.9
2017-06-27T19:03:59.969Z,84
2017-06-27T19:04:20.731Z,83.8
2017-06-27T19:04:42.248Z,84.1
2017-06-27T19:05:05.061Z,84
2017-06-27T19:05:27.522Z,84.1
2017-06-27T19:05:48.941Z,84.1
2017-06-27T19:06:09.608Z,84.6
2017-06-27T19:06:31.594Z,84.4
2017-06-27T19:06:52.719Z,84.6
2017-06-27T19:07:15.256Z,84.2
2017-06-27T19:07:39.126Z,84.6
2017-06-27T19:08:02.030Z,84.5
2017-06-27T19:08:23.619Z,84.3
2017-06-27T19:08:46.708Z,84.3
2017-06-27T19:09:07.762Z,84.5
2017-06-27T19:09:28.517Z,84.3
2017-06-27T19:09:49.167Z,84.4
2017-06-27T19:10:09.825Z,84.4
2017-06-27T19:10:30.488Z,84.4
2017-06-27T19:10:52.027Z,84.7
2017-06-27T19:11:12.675Z,84.5
2017-06-27T19:11:33.338Z,84.7
2017-06-27T19:11:53.998Z,84.5
2017-06-27T19:12:15.467Z,84.1
2017-06-27T19:12:36.962Z,84
2017-06-27T19:12:57.630Z,84.1
2017-06-27T19:13:18.276Z,84.1
2017-06-27T19:13:39.508Z,83.9
2017-06-27T19:14:01.958Z,84.9
2017-06-27T19:14:22.622Z,84.2
2017-06-27T19:14:43.276Z,84
2017-06-27T19:15:03.931Z,84
2017-06-27T19:15:24.621Z,83.9
2017-06-27T19:15:45.279Z,84.5
2017-06-27T19:16:05.935Z,84.2
2017-06-27T19:16:26.585Z,84.5
2017-06-27T19:16:47.240Z,84.9
2017-06-27T19:17:07.905Z,84.9
2017-06-27T19:17:28.547Z,85.3
2017-06-27T19:17:50.968Z,84.9
2017-06-27T19:18:11.613Z,85.2
2017-06-27T19:18:32.267Z,85.3
2017-06-27T19:18:53.566Z,85.4
2017-06-27T19:19:14.237Z,85.2
2017-06-27T19:19:36.425Z,84.9
2017-06-27T19:19:57.122Z,85.3
2017-06-27T19:20:17.774Z,85.3
2017-06-27T19:20:38.452Z,85.1
2017-06-27T19:20:59.123Z,85.3
2017-06-27T19:21:19.790Z,85.3
2017-06-27T19:21:40.444Z,85
2017-06-27T19:22:02.025Z,85
2017-06-27T19:22:22.694Z,85.1
2017-06-27T19:22:43.387Z,85
2017-06-27T19:23:04.877Z,85.2
2017-06-27T19:23:25.536Z,85.3
2017-06-27T19:23:46.202Z,85.4
2017-06-27T19:24:06.921Z,85.4
2017-06-27T19:24:27.578Z,85
2017-06-27T19:24:48.227Z,84.7
2017-06-27T19:25:08.882Z,85
2017-06-27T19:25:29.536Z,85.2
2017-06-27T19:25:50.947Z,85.4
2017-06-27T19:26:11.618Z,85.4
2017-06-27T19:26:34.004Z,85.2
2017-06-27T19:26:54.699Z,85.2
2017-06-27T19:27:15.406Z,85.9
2017-06-27T19:27:37.041Z,86.1
2017-06-27T19:27:57.723Z,85.6
2017-06-27T19:28:19.211Z,85.9
2017-06-27T19:28:39.869Z,86
2017-06-27T19:29:01.018Z,86.5
2017-06-27T19:29:22.482Z,86.6
2017-06-27T19:29:43.192Z,86.3
2017-06-27T19:30:04.430Z,86
2017-06-27T19:30:26.522Z,86
2017-06-27T19:30:47.195Z,86.2
2017-06-27T19:31:08.486Z,86
2017-06-27T19:31:29.165Z,86.1
2017-06-27T19:31:49.849Z,85.9
2017-06-27T19:32:11.455Z,86
2017-06-27T19:32:32.146Z,85.9
2017-06-27T19:32:52.805Z,86
2017-06-27T19:33:13.478Z,85.4
2017-06-27T19:33:35.114Z,85.4
2017-06-27T19:33:55.890Z,86.1
2017-06-27T19:34:16.579Z,86.2
2017-06-27T19:34:37.945Z,86.5
2017-06-27T19:34:59.531Z,86
2017-06-27T19:35:19.929Z,86
2017-06-27T19:35:41.190Z,86
2017-06-27T19:36:04.525Z,86
2017-06-27T19:36:26.132Z,86.2
2017-06-27T19:36:47.472Z,86.1
2017-06-27T19:37:08.886Z,86.1
2017-06-27T19:37:29.593Z,86.1
2017-06-27T19:37:51.146Z,86.2
2017-06-27T19:38:12.097Z,86.2
2017-06-27T19:38:34.792Z,86.1
2017-06-27T19:38:56.795Z,86.5
2017-06-27T19:39:18.670Z,86.5
2017-06-27T19:39:39.759Z,86.3
2017-06-27T19:40:00.602Z,86.4
2017-06-27T19:40:23.003Z,86.6
2017-06-27T19:40:45.766Z,87
2017-06-27T19:41:08.692Z,86.7
2017-06-27T19:41:30.009Z,86.6
2017-06-27T19:41:51.264Z,86.7
2017-06-27T19:42:13.801Z,86.4
2017-06-27T19:42:35.295Z,86.6
2017-06-27T19:42:57.692Z,86.5
2017-06-27T19:43:32.732Z,86
2017-06-27T19:43:54.707Z,86.5
2017-06-27T19:44:15.379Z,86.8
2017-06-27T19:44:36.254Z,86.7
2017-06-27T19:44:58.078Z,86.7
2017-06-27T19:45:18.743Z,86.8
2017-06-27T19:45:39.386Z,86.3
2017-06-27T19:46:00.065Z,86.5
2017-06-27T19:46:22.397Z,86.8
2017-06-27T19:46:43.136Z,87.1
2017-06-27T19:47:04.488Z,87.4
2017-06-27T19:47:25.194Z,87
2017-06-27T19:47:46.669Z,87.2
2017-06-27T19:48:08.021Z,87.2
2017-06-27T19:48:28.689Z,87
2017-06-27T19:48:50.010Z,86.6
2017-06-27T19:49:10.701Z,87.4
2017-06-27T19:49:32.919Z,87
2017-06-27T19:49:54.104Z,87.3
2017-06-27T19:50:16.067Z,87.1
2017-06-27T19:50:39.489Z,86.9
2017-06-27T19:51:00.202Z,86.7
2017-06-27T19:51:20.891Z,87.1
2017-06-27T19:51:43.401Z,86.6
2017-06-27T19:52:05.074Z,86.6
2017-06-27T19:52:26.488Z,87
2017-06-27T19:52:47.160Z,87.3
2017-06-27T19:53:08.083Z,87.3
2017-06-27T19:53:28.825Z,87
2017-06-27T19:53:50.983Z,87.4
2017-06-27T19:54:11.638Z,87.7
2017-06-27T19:54:33.902Z,87
2017-06-27T19:54:56.403Z,87.4
2017-06-27T19:55:17.132Z,87.7
2017-06-27T19:55:37.830Z,88.1
2017-06-27T19:55:58.491Z,88.6
2017-06-27T19:56:19.180Z,88.5
2017-06-27T19:56:39.889Z,87.8
2017-06-27T19:57:00.608Z,88
2017-06-27T19:57:21.227Z,87.6
2017-06-27T19:57:41.883Z,87.6
2017-06-27T19:58:02.566Z,87.6
2017-06-27T19:58:23.253Z,87.8
2017-06-27T19:58:43.907Z,87.5
2017-06-27T19:59:04.589Z,87.1
2017-06-27T19:59:26.053Z,87.5
2017-06-27T19:59:46.752Z,87.7
2017-06-27T20:00:08.128Z,87.7
2017-06-27T20:00:28.813Z,87.5
2017-06-27T20:00:50.127Z,87.3
2017-06-27T20:01:10.780Z,87
2017-06-27T20:01:31.445Z,87
2017-06-27T20:01:52.098Z,87.1
2017-06-27T20:02:13.599Z,87.1
2017-06-27T20:02:34.307Z,87.3
2017-06-27T20:02:54.963Z,87.3
2017-06-27T20:03:16.616Z,87.1
2017-06-27T20:03:37.446Z,87
2017-06-27T20:04:00.778Z,87.1
2017-06-27T20:04:22.296Z,87.3
2017-06-27T20:04:43.477Z,87.2
2017-06-27T20:05:04.151Z,87
2017-06-27T20:05:24.891Z,87.2
2017-06-27T20:05:45.544Z,86.9
2017-06-27T20:06:06.348Z,87.2
2017-06-27T20:06:27.582Z,87.6
2017-06-27T20:06:48.910Z,87.7
2017-06-27T20:07:10.588Z,87.3
2017-06-27T20:07:31.467Z,87.7
2017-06-27T20:07:52.187Z,87.6
2017-06-27T20:08:12.848Z,87.8
2017-06-27T20:08:33.530Z,88.5
2017-06-27T20:08:55.062Z,88.2
2017-06-27T20:09:15.715Z,88.2
2017-06-27T20:09:36.425Z,88.3
2017-06-27T20:09:56.943Z,88.2
2017-06-27T20:10:19.461Z,88.1
2017-06-27T20:10:40.143Z,88.5
2017-06-27T20:11:00.823Z,88.5
2017-06-27T20:11:21.571Z,88
2017-06-27T20:11:42.366Z,88.4
2017-06-27T20:12:03.080Z,88.4
2017-06-27T20:12:23.746Z,88.3
2017-06-27T20:12:44.468Z,88.6
2017-06-27T20:13:05.416Z,88.3
2017-06-27T20:13:29.482Z,88.3
2017-06-27T20:13:50.126Z,88.2
2017-06-27T20:14:11.167Z,88.3
2017-06-27T20:14:31.844Z,88.4
2017-06-27T20:14:52.550Z,88.4
2017-06-27T20:15:15.500Z,88.6
2017-06-27T20:15:36.186Z,88.8
2017-06-27T20:15:57.553Z,89.3
2017-06-27T20:16:19.000Z,89.5
2017-06-27T20:16:41.920Z,89.7
2017-06-27T20:17:02.620Z,89.2
2017-06-27T20:17:23.380Z,89.8
2017-06-27T20:17:44.034Z,90.6
2017-06-27T20:18:04.687Z,90.7
2017-06-27T20:18:26.019Z,90.6
2017-06-27T20:18:46.990Z,90.3
2017-06-27T20:19:08.505Z,90.1
2017-06-27T20:19:29.200Z,89.8
2017-06-27T20:19:50.684Z,90.1
2017-06-27T20:20:11.998Z,89.8
2017-06-27T20:20:32.797Z,90.1
2017-06-27T20:20:53.448Z,90.3
2017-06-27T20:21:14.130Z,90.6
2017-06-27T20:21:34.820Z,90.4
2017-06-27T20:21:55.511Z,91.2
2017-06-27T20:22:16.191Z,91.5
2017-06-27T20:22:36.879Z,91.1
2017-06-27T20:22:57.669Z,91.5
2017-06-27T20:23:19.321Z,91
2017-06-27T20:23:40.041Z,90.9
2017-06-27T20:24:01.580Z,90.9
2017-06-27T20:24:22.380Z,90.7
2017-06-27T20:24:43.031Z,90.9
2017-06-27T20:25:03.684Z,90.8
2017-06-27T20:25:26.007Z,90.8
2017-06-27T20:25:52.520Z,91.3
2017-06-27T20:26:23.179Z,91.2
2017-06-27T20:26:43.852Z,91.3
2017-06-27T20:27:04.560Z,91.9
2017-06-27T20:27:25.210Z,91.4
2017-06-27T20:27:45.881Z,91.6
2017-06-27T20:28:06.578Z,91.6
2017-06-27T20:28:27.243Z,91.6
2017-06-27T20:28:47.916Z,91.2
2017-06-27T20:29:08.589Z,91.8
2017-06-27T20:29:29.985Z,92.2
2017-06-27T20:29:50.641Z,92.2
2017-06-27T20:30:12.033Z,92.2
2017-06-27T20:30:32.695Z,92.5
2017-06-27T20:30:53.383Z,93.2
2017-06-27T20:31:14.058Z,93.1
2017-06-27T20:31:34.724Z,92.7
2017-06-27T20:31:56.110Z,92.4
2017-06-27T20:32:16.807Z,92.3
2017-06-27T20:32:37.473Z,92.3
2017-06-27T20:32:58.155Z,92.2
2017-06-27T20:33:18.805Z,92.2
2017-06-27T20:33:40.433Z,92.1
2017-06-27T20:34:01.134Z,92.6
2017-06-27T20:34:22.493Z,92.6
2017-06-27T20:34:43.163Z,93.3
2017-06-27T20:35:03.825Z,93.2
2017-06-27T20:35:25.047Z,92.8
2017-06-27T20:35:45.747Z,93.2
2017-06-27T20:36:06.400Z,92.8
2017-06-27T20:36:27.065Z,92.9
2017-06-27T20:36:47.719Z,93.1
2017-06-27T20:37:08.377Z,93.2
2017-06-27T20:37:30.017Z,93
2017-06-27T20:37:50.697Z,93.8
2017-06-27T20:38:11.385Z,93.4
2017-06-27T20:38:32.039Z,93.2
2017-06-27T20:38:52.712Z,93.3
2017-06-27T20:39:13.367Z,93.9
2017-06-27T20:39:34.038Z,93.9
2017-06-27T20:39:54.689Z,94.3
2017-06-27T20:40:16.101Z,94.6
2017-06-27T20:40:36.745Z,95.1
2017-06-27T20:40:57.412Z,95.2
2017-06-27T20:41:20.107Z,94.5
2017-06-27T20:41:40.815Z,94.3
2017-06-27T20:42:01.481Z,94.7
2017-06-27T20:42:22.161Z,94.7
2017-06-27T20:42:43.438Z,94.2
2017-06-27T20:43:04.113Z,94.6
2017-06-27T20:43:24.798Z,94.1
2017-06-27T20:43:45.479Z,93.8
2017-06-27T20:44:06.129Z,93.5
2017-06-27T20:44:27.693Z,93.5
2017-06-27T20:44:48.348Z,93.8
2017-06-27T20:45:09.000Z,93.9
2017-06-27T20:45:29.649Z,94
2017-06-27T20:45:50.313Z,94.1
2017-06-27T20:46:11.015Z,94.3
2017-06-27T20:46:31.677Z,94.1
2017-06-27T20:46:52.333Z,93.4
2017-06-27T20:47:13.032Z,93.9
2017-06-27T20:47:33.682Z,93.8
2017-06-27T20:47:54.333Z,93.8
2017-06-27T20:48:14.990Z,93.7
2017-06-27T20:48:37.024Z,94.7
2017-06-27T20:48:57.706Z,94.3
2017-06-27T20:49:18.350Z,95.3
2017-06-27T20:49:39.997Z,94.6
2017-06-27T20:50:00.945Z,94.5
2017-06-27T20:50:22.505Z,94.6
2017-06-27T20:50:44.125Z,94.7
2017-06-27T20:51:05.537Z,94
2017-06-27T20:51:26.232Z,94.2
2017-06-27T20:51:46.900Z,94.2
2017-06-27T20:52:08.554Z,94.1
2017-06-27T20:52:30.201Z,94.3
2017-06-27T20:52:51.528Z,93.4
2017-06-27T20:53:13.023Z,94
2017-06-27T20:53:33.673Z,93.9
2017-06-27T20:53:54.323Z,93.6
2017-06-27T20:54:15.030Z,93.6
2017-06-27T20:54:36.592Z,93.4
2017-06-27T20:54:58.067Z,93.1
2017-06-27T20:55:18.735Z,92.7
2017-06-27T20:55:40.003Z,93.3
2017-06-27T20:56:00.690Z,93
2017-06-27T20:56:21.392Z,93
2017-06-27T20:56:43.044Z,93
2017-06-27T20:57:03.710Z,92.7
2017-06-27T20:57:24.950Z,92.6
2017-06-27T20:57:45.607Z,92
2017-06-27T20:58:06.273Z,92.3
2017-06-27T20:58:26.950Z,92.3
2017-06-27T20:59:07.207Z,91.9
2017-06-27T20:59:27.872Z,92.3
2017-06-27T20:59:48.548Z,92.1
2017-06-27T21:00:09.276Z,92.2
2017-06-27T21:00:29.927Z,92.4
2017-06-27T21:00:50.590Z,92.1
2017-06-27T21:01:11.287Z,91.9
2017-06-27T21:01:32.953Z,92.3
2017-06-27T21:01:54.593Z,92.3
2017-06-27T21:02:16.139Z,92.4
2017-06-27T21:02:37.539Z,92.2
2017-06-27T21:02:59.060Z,92
2017-06-27T21:03:20.536Z,91.9
2017-06-27T21:03:41.198Z,91.9
2017-06-27T21:04:02.624Z,91.9
2017-06-27T21:04:24.051Z,91.4
2017-06-27T21:04:46.559Z,91.8
2017-06-27T21:05:08.045Z,91.9
2017-06-27T21:05:29.517Z,91.6
2017-06-27T21:05:50.195Z,91.8
2017-06-27T21:06:11.570Z,91.6
2017-06-27T21:06:32.252Z,91.5
2017-06-27T21:06:52.903Z,91.4
2017-06-27T21:07:13.562Z,91.3
2017-06-27T21:07:35.124Z,91.4
2017-06-27T21:07:55.800Z,91.5
2017-06-27T21:08:18.071Z,91
2017-06-27T21:08:38.783Z,91.2
2017-06-27T21:08:59.432Z,90.8
2017-06-27T21:09:20.086Z,91.4
2017-06-27T21:09:40.783Z,91.1
2017-06-27T21:10:01.444Z,91.4
2017-06-27T21:10:22.129Z,91.2
2017-06-27T21:10:42.839Z,91.1
2017-06-27T21:11:03.509Z,90.9
2017-06-27T21:11:24.198Z,90.8
2017-06-27T21:11:44.882Z,91.4
2017-06-27T21:12:05.520Z,91.2
2017-06-27T21:12:26.167Z,91.3
2017-06-27T21:12:47.625Z,90.9
2017-06-27T21:13:08.274Z,91.2
2017-06-27T21:13:30.545Z,91
2017-06-27T21:13:51.287Z,91.2
2017-06-27T21:14:12.531Z,91.4
2017-06-27T21:14:35.051Z,91.1
2017-06-27T21:14:55.751Z,91.3
2017-06-27T21:15:16.408Z,91.3
2017-06-27T21:15:37.064Z,91.2
2017-06-27T21:15:57.720Z,91.3
2017-06-27T21:16:18.411Z,91.2
2017-06-27T21:16:39.074Z,91.3
2017-06-27T21:16:59.767Z,90.7
2017-06-27T21:17:21.224Z,90.7
2017-06-27T21:17:41.892Z,91
2017-06-27T21:18:02.561Z,90.7
2017-06-27T21:18:24.069Z,91
2017-06-27T21:18:44.765Z,90.7
2017-06-27T21:19:05.488Z,90.7
2017-06-27T21:19:26.155Z,90.7
2017-06-27T21:19:46.821Z,90.7
2017-06-27T21:20:07.496Z,90.4
2017-06-27T21:20:29.062Z,90.4
2017-06-27T21:20:51.053Z,90.4
2017-06-27T21:21:12.526Z,90.3
2017-06-27T21:21:33.289Z,90.7
2017-06-27T21:21:54.533Z,90.5
2017-06-27T21:22:15.189Z,90.7
2017-06-27T21:22:35.858Z,90.1
2017-06-27T21:22:56.564Z,90.3
2017-06-27T21:23:17.258Z,89.7
2017-06-27T21:23:37.919Z,90.4
2017-06-27T21:23:58.648Z,90.3
2017-06-27T21:24:20.141Z,90.3
2017-06-27T21:24:42.472Z,90.2
2017-06-27T21:25:04.064Z,90.2
2017-06-27T21:25:24.712Z,90
2017-06-27T21:25:46.147Z,89.8
2017-06-27T21:26:06.801Z,89.8
2017-06-27T21:26:27.498Z,89.8
2017-06-27T21:26:48.198Z,89.8
2017-06-27T21:27:09.620Z,89.6
2017-06-27T21:27:30.281Z,89.3
2017-06-27T21:27:50.965Z,89.9
2017-06-27T21:28:11.629Z,89.9
2017-06-27T21:28:32.331Z,89.8
2017-06-27T21:28:52.992Z,89.1
2017-06-27T21:29:13.677Z,89.2
2017-06-27T21:29:36.050Z,88.7
2017-06-27T21:29:56.763Z,88
2017-06-27T21:30:18.063Z,88
2017-06-27T21:30:38.772Z,88.3
2017-06-27T21:30:59.452Z,88.5
2017-06-27T21:31:20.150Z,88.3
2017-06-27T21:31:40.811Z,88
2017-06-27T21:32:02.063Z,88.3
2017-06-27T21:32:22.734Z,87.8
2017-06-27T21:32:43.418Z,88.5
2017-06-27T21:33:04.098Z,87.9
2017-06-27T21:33:24.788Z,88.3
2017-06-27T21:33:45.488Z,88.2
2017-06-27T21:34:06.145Z,88.2
2017-06-27T21:34:26.835Z,88.2
2017-06-27T21:34:47.503Z,88.4
2017-06-27T21:35:08.165Z,88
2017-06-27T21:35:29.600Z,88
2017-06-27T21:35:50.288Z,88.1
2017-06-27T21:36:10.935Z,88.5
2017-06-27T21:36:32.172Z,88.3
2017-06-27T21:36:52.817Z,87.9
2017-06-27T21:37:13.489Z,87.8
2017-06-27T21:37:34.168Z,87.7
2017-06-27T21:37:54.908Z,87.8
2017-06-27T21:38:15.584Z,87.8
2017-06-27T21:38:36.276Z,87.7
2017-06-27T21:38:56.950Z,87.9
2017-06-27T21:39:18.584Z,87.5
2017-06-27T21:39:41.283Z,87.9
2017-06-27T21:40:03.221Z,87.9
2017-06-27T21:40:24.683Z,87.9
2017-06-27T21:40:45.439Z,87.7
2017-06-27T21:41:06.126Z,87.4
2017-06-27T21:41:26.818Z,87.3
2017-06-27T21:41:47.466Z,87.7
2017-06-27T21:42:08.128Z,87.3
2017-06-27T21:42:28.803Z,87.7
2017-06-27T21:42:49.490Z,87.6
2017-06-27T21:43:11.037Z,87.6
2017-06-27T21:43:31.719Z,87.8
2017-06-27T21:43:53.048Z,87.6
2017-06-27T21:44:13.722Z,87.3
2017-06-27T21:44:34.440Z,87.3
2017-06-27T21:44:55.135Z,87.3
2017-06-27T21:45:16.487Z,87.5
2017-06-27T21:45:38.638Z,87.6
2017-06-27T21:45:59.312Z,87.2
2017-06-27T21:46:20.591Z,87.3
2017-06-27T21:46:41.293Z,87.4
2017-06-27T21:47:02.572Z,87.5
2017-06-27T21:47:23.257Z,87.5
2017-06-27T21:47:43.962Z,87.8
2017-06-27T21:48:04.639Z,87.5
2017-06-27T21:48:25.303Z,87.5
2017-06-27T21:48:46.604Z,86.8
2017-06-27T21:49:07.349Z,86.4
2017-06-27T21:49:29.012Z,86.4
2017-06-27T21:49:51.593Z,86.4
2017-06-27T21:50:14.096Z,87
2017-06-27T21:50:34.818Z,86.4
2017-06-27T21:50:55.520Z,86.6
2017-06-27T21:51:16.182Z,86.5
2017-06-27T21:51:36.862Z,86.2
2017-06-27T21:51:57.515Z,86.7
2017-06-27T21:52:19.048Z,86.9
2017-06-27T21:52:39.728Z,86.7
2017-06-27T21:53:00.386Z,86.7
2017-06-27T21:53:21.654Z,87.3
2017-06-27T21:53:42.325Z,87.2
2017-06-27T21:54:03.002Z,86.4
2017-06-27T21:54:23.690Z,87
2017-06-27T21:54:45.167Z,86.4
2017-06-27T21:55:05.820Z,87.2
2017-06-27T21:55:26.488Z,87
2017-06-27T21:55:47.163Z,86.9
2017-06-27T21:56:08.628Z,87.2
2017-06-27T21:56:29.300Z,87.3
2017-06-27T21:56:49.977Z,86.9
2017-06-27T21:57:10.665Z,86.9
2017-06-27T21:57:31.352Z,87
2017-06-27T21:57:52.175Z,86.3
2017-06-27T21:58:12.835Z,86.3
2017-06-27T21:58:34.153Z,86.6
2017-06-27T21:58:54.825Z,86.6
2017-06-27T21:59:15.483Z,86.5
2017-06-27T21:59:36.192Z,86.5
2017-06-27T21:59:57.644Z,86.9
2017-06-27T22:00:18.324Z,86.2
2017-06-27T22:00:39.048Z,86.1
2017-06-27T22:00:59.720Z,86.5
2017-06-27T22:01:20.456Z,86.8
2017-06-27T22:01:41.138Z,86.9
2017-06-27T22:02:02.693Z,86.4
2017-06-27T22:02:23.347Z,86.5
2017-06-27T22:02:44.607Z,86.6
2017-06-27T22:03:05.275Z,86.6
2017-06-27T22:03:26.595Z,86.4
2017-06-27T22:03:47.335Z,86.5
2017-06-27T22:04:07.998Z,87
2017-06-27T22:04:28.663Z,86.5
2017-06-27T22:04:49.315Z,86.2
2017-06-27T22:05:09.991Z,86.4
2017-06-27T22:05:30.661Z,86.7
2017-06-27T22:05:51.329Z,86.5
2017-06-27T22:06:11.990Z,86.4
2017-06-27T22:06:33.661Z,86.4
2017-06-27T22:06:54.334Z,86.5
2017-06-27T22:07:15.647Z,86.2
2017-06-27T22:07:36.441Z,86.5
2017-06-27T22:07:58.084Z,86.9
2017-06-27T22:08:20.598Z,86.7
2017-06-27T22:08:41.305Z,86.5
2017-06-27T22:09:01.951Z,86.4
2017-06-27T22:09:22.630Z,86.5
2017-06-27T22:09:43.448Z,86.3
2017-06-27T22:10:04.130Z,86.4
2017-06-27T22:10:24.788Z,86.7
2017-06-27T22:10:45.449Z,86.8
2017-06-27T22:11:06.139Z,86.5
2017-06-27T22:11:26.815Z,86.5
2017-06-27T22:11:48.167Z,86.5
2017-06-27T22:12:08.864Z,86.9
2017-06-27T22:12:29.516Z,86.9
2017-06-27T22:12:50.247Z,86.4
2017-06-27T22:13:10.899Z,86.4
2017-06-27T22:13:32.105Z,86.5
2017-06-27T22:13:52.774Z,86.9
2017-06-27T22:14:13.442Z,87
2017-06-27T22:14:35.010Z,86.9
2017-06-27T22:14:55.730Z,86.9
2017-06-27T22:15:16.389Z,86.4
2017-06-27T22:15:37.089Z,86.4
2017-06-27T22:15:58.704Z,86.4
2017-06-27T22:16:19.393Z,86.6
2017-06-27T22:16:40.210Z,86.6
2017-06-27T22:17:00.882Z,86.3
2017-06-27T22:17:21.550Z,86.5
2017-06-27T22:17:42.239Z,86.9
2017-06-27T22:18:02.915Z,86.5
2017-06-27T22:18:23.609Z,86.3
2017-06-27T22:18:44.295Z,86.2
2017-06-27T22:19:04.956Z,86.4
2017-06-27T22:19:25.613Z,86.5
2017-06-27T22:19:47.237Z,87.2
2017-06-27T22:20:07.899Z,87.1
2017-06-27T22:20:28.584Z,87.1
2017-06-27T22:20:49.316Z,86.9
2017-06-27T22:21:10.015Z,87.4
2017-06-27T22:21:31.514Z,87.4
2017-06-27T22:21:52.177Z,87.2
2017-06-27T22:22:12.850Z,87.2
2017-06-27T22:22:33.553Z,87.4
2017-06-27T22:22:54.247Z,87.2
2017-06-27T22:23:14.977Z,87.2
2017-06-27T22:23:35.665Z,87.6
2017-06-27T22:23:56.321Z,87.5
2017-06-27T22:24:17.517Z,87.6
2017-06-27T22:24:38.251Z,87.3
2017-06-27T22:24:58.933Z,87.2
2017-06-27T22:25:19.617Z,87.5
2017-06-27T22:25:40.280Z,87.4
2017-06-27T22:26:00.994Z,87.3
2017-06-27T22:26:21.659Z,87.9
2017-06-27T22:26:42.324Z,87.3
2017-06-27T22:27:02.980Z,87.5
2017-06-27T22:27:23.662Z,87.6
2017-06-27T22:27:44.347Z,87.2
2017-06-27T22:28:05.014Z,87.8
2017-06-27T22:28:25.678Z,87.8
2017-06-27T22:28:46.379Z,87.8
2017-06-27T22:29:07.055Z,87.8
2017-06-27T22:29:27.747Z,87.8
2017-06-27T22:29:48.396Z,87.7
2017-06-27T22:30:09.068Z,87.7
2017-06-27T22:30:29.724Z,87.5
2017-06-27T22:30:51.112Z,87.7
2017-06-27T22:31:11.783Z,88.3
2017-06-27T22:31:33.086Z,88.4
2017-06-27T22:31:53.743Z,88.4
2017-06-27T22:32:14.411Z,88.3
2017-06-27T22:32:35.703Z,88.2
2017-06-27T22:32:56.410Z,88.2
2017-06-27T22:33:17.092Z,88.1
2017-06-27T22:33:37.766Z,88.1
2017-06-27T22:33:58.484Z,88.4
2017-06-27T22:34:19.137Z,88.4
2017-06-27T22:34:39.793Z,88
2017-06-27T22:35:01.188Z,88.3
2017-06-27T22:35:21.880Z,88.1
2017-06-27T22:35:42.629Z,88.1
2017-06-27T22:36:03.320Z,88.5
2017-06-27T22:36:24.619Z,88.2
2017-06-27T22:36:45.301Z,88.3
2017-06-27T22:37:06.662Z,88.3
2017-06-27T22:37:28.243Z,88.5
2017-06-27T22:37:48.907Z,88.7
2017-06-27T22:38:10.193Z,88.4
2017-06-27T22:38:30.926Z,88.5
2017-06-27T22:38:51.611Z,88.7
2017-06-27T22:39:12.290Z,88.6
2017-06-27T22:39:33.717Z,88.6
2017-06-27T22:39:54.411Z,88.8
2017-06-27T22:40:15.102Z,88.6
2017-06-27T22:40:35.781Z,88.6
2017-06-27T22:40:57.188Z,88.7
2017-06-27T22:41:17.878Z,89.1
2017-06-27T22:41:38.551Z,88.9
2017-06-27T22:41:59.246Z,89.3
2017-06-27T22:42:19.886Z,88.9
2017-06-27T22:42:41.263Z,89.1
2017-06-27T22:43:01.957Z,89.2
2017-06-27T22:43:22.614Z,88.9
2017-06-27T22:43:43.262Z,89
2017-06-27T22:44:04.633Z,89.2
2017-06-27T22:44:25.278Z,89.5
2017-06-27T22:44:46.700Z,89.7
2017-06-27T22:45:07.410Z,89.6
2017-06-27T22:45:28.616Z,90
2017-06-27T22:45:49.309Z,89.6
2017-06-27T22:46:10.765Z,89.5
2017-06-27T22:46:31.444Z,89.2
2017-06-27T22:46:52.783Z,89.8
2017-06-27T22:47:13.455Z,89.5
2017-06-27T22:47:34.201Z,89.4
2017-06-27T22:47:54.874Z,89.7
2017-06-27T22:48:15.547Z,89.9
2017-06-27T22:48:37.630Z,89.6
2017-06-27T22:48:59.130Z,89.7
2017-06-27T22:49:19.789Z,89.8
2017-06-27T22:49:41.166Z,89.7
2017-06-27T22:50:02.645Z,89.7
2017-06-27T22:50:24.204Z,90.4
2017-06-27T22:50:44.890Z,90.6
2017-06-27T22:51:05.566Z,90.3
2017-06-27T22:51:26.261Z,90.3
2017-06-27T22:51:47.002Z,90.4
2017-06-27T22:52:07.702Z,90.6
2017-06-27T22:52:28.393Z,90.5
2017-06-27T22:52:49.071Z,90.6
2017-06-27T22:53:10.674Z,90.9
2017-06-27T22:53:31.344Z,91.1
2017-06-27T22:53:52.285Z,91
2017-06-27T22:54:13.770Z,90.8
2017-06-27T22:54:34.459Z,90.9
2017-06-27T22:54:55.167Z,91.1
2017-06-27T22:55:16.601Z,91.1
2017-06-27T22:55:37.309Z,91
2017-06-27T22:55:58.764Z,90.9
2017-06-27T22:56:21.156Z,91.1
2017-06-27T22:56:41.855Z,91
2017-06-27T22:57:04.135Z,90.9
2017-06-27T22:57:24.802Z,90.8
2017-06-27T22:57:46.125Z,91.2
2017-06-27T22:58:07.042Z,91.1
2017-06-27T22:58:27.738Z,91.6
2017-06-27T22:58:48.496Z,91.2
2017-06-27T22:59:09.223Z,91.5
2017-06-27T22:59:29.938Z,91.6
2017-06-27T22:59:51.145Z,92.2
2017-06-27T23:00:11.833Z,92.1
2017-06-27T23:00:32.551Z,92.5
2017-06-27T23:00:53.220Z,92.7
2017-06-27T23:01:13.961Z,92.6
2017-06-27T23:01:35.176Z,92.9
2017-06-27T23:01:57.544Z,93
2017-06-27T23:02:18.212Z,93.1
2017-06-27T23:02:38.891Z,93.3
2017-06-27T23:02:59.632Z,93.8
2017-06-27T23:03:23.046Z,93.6
2017-06-27T23:03:43.800Z,93.9
2017-06-27T23:04:04.495Z,93.5
2017-06-27T23:04:25.166Z,93.9
2017-06-27T23:04:45.934Z,94.4
2017-06-27T23:05:06.608Z,94.5
2017-06-27T23:05:27.314Z,94.5
2017-06-27T23:05:48.006Z,94.9
2017-06-27T23:06:09.313Z,94.8
2017-06-27T23:06:30.015Z,95.1
2017-06-27T23:06:51.298Z,95.5
2017-06-27T23:07:11.969Z,95.2
2017-06-27T23:07:32.686Z,94.7
2017-06-27T23:07:53.353Z,94.6
2017-06-27T23:08:14.716Z,94.9
2017-06-27T23:08:35.423Z,94.9
2017-06-27T23:08:56.150Z,95.2
2017-06-27T23:09:16.826Z,94.9
2017-06-27T23:09:37.521Z,94.6
2017-06-27T23:09:58.176Z,94.9
2017-06-27T23:10:18.844Z,95.2
2017-06-27T23:10:39.506Z,95
2017-06-27T23:11:01.130Z,95.2
2017-06-27T23:11:21.835Z,95.6
2017-06-27T23:11:42.523Z,95.8
2017-06-27T23:12:04.605Z,95.6
2017-06-27T23:12:25.306Z,95.7
2017-06-27T23:12:45.988Z,95.6
2017-06-27T23:13:06.668Z,95.7
2017-06-27T23:13:28.231Z,95.6
2017-06-27T23:13:48.948Z,96
2017-06-27T23:14:09.631Z,95.7
2017-06-27T23:14:30.309Z,95.5
2017-06-27T23:14:51.008Z,95.2
2017-06-27T23:15:11.665Z,95.5
2017-06-27T23:15:32.311Z,95.1
2017-06-27T23:15:52.982Z,95.7
2017-06-27T23:16:14.205Z,95.7
2017-06-27T23:16:35.711Z,95.5
2017-06-27T23:16:56.399Z,95.6
2017-06-27T23:17:17.078Z,95.7
2017-06-27T23:17:37.804Z,95.8
2017-06-27T23:17:58.494Z,96
2017-06-27T23:18:20.145Z,95.8
2017-06-27T23:18:40.806Z,96.3
2017-06-27T23:19:01.535Z,96.3
2017-06-27T23:19:22.213Z,96.3
2017-06-27T23:19:42.906Z,96.1
2017-06-27T23:20:04.234Z,96.1
2017-06-27T23:20:24.923Z,96.5
2017-06-27T23:20:45.612Z,96.2
2017-06-27T23:21:06.260Z,97
2017-06-27T23:21:26.945Z,96.9
2017-06-27T23:21:48.138Z,97
2017-06-27T23:22:08.849Z,97
2017-06-27T23:22:29.553Z,96.9
2017-06-27T23:22:51.240Z,97
2017-06-27T23:23:11.961Z,96.8
2017-06-27T23:23:32.651Z,96.7
2017-06-27T23:23:53.373Z,96.9
2017-06-27T23:24:14.112Z,97.2
2017-06-27T23:24:34.768Z,97.2
2017-06-27T23:24:57.243Z,97.2
2017-06-27T23:25:17.950Z,97.2
2017-06-27T23:25:38.630Z,97.3
2017-06-27T23:25:59.337Z,97.3
2017-06-27T23:26:20.023Z,97.5
2017-06-27T23:26:42.197Z,97.6
2017-06-27T23:27:03.844Z,98.2
2017-06-27T23:27:25.130Z,98.3
2017-06-27T23:27:45.781Z,98.1
2017-06-27T23:28:06.447Z,98.4
2017-06-27T23:28:27.750Z,98.2
2017-06-27T23:28:49.071Z,98.4
2017-06-27T23:29:09.797Z,97.9
2017-06-27T23:29:31.266Z,97.6
2017-06-27T23:29:51.966Z,97.8
2017-06-27T23:30:12.656Z,98.3
2017-06-27T23:30:33.350Z,98.1
2017-06-27T23:30:54.028Z,98.6
2017-06-27T23:31:15.708Z,98.6
2017-06-27T23:31:36.398Z,98.3
2017-06-27T23:31:57.064Z,99
2017-06-27T23:32:17.754Z,98.7
2017-06-27T23:32:38.440Z,98.6
2017-06-27T23:32:59.125Z,98.4
2017-06-27T23:33:20.667Z,98.1
2017-06-27T23:33:41.353Z,98.1
2017-06-27T23:34:02.011Z,98.3
2017-06-27T23:34:22.682Z,98.2
2017-06-27T23:34:44.142Z,98.2
2017-06-27T23:35:04.814Z,98.2
2017-06-27T23:35:25.468Z,98.3
2017-06-27T23:35:46.163Z,98
2017-06-27T23:36:06.852Z,97.7
2017-06-27T23:36:27.517Z,98.3
2017-06-27T23:36:48.233Z,98.3
2017-06-27T23:37:08.914Z,98.3
2017-06-27T23:37:29.653Z,98.3
2017-06-27T23:37:51.072Z,98.5
2017-06-27T23:38:12.330Z,98.6
2017-06-27T23:38:33.034Z,98
2017-06-27T23:38:53.699Z,98.5
2017-06-27T23:39:14.381Z,98.3
2017-06-27T23:39:35.043Z,98.6
2017-06-27T23:39:55.724Z,98.6